sensor_id;sensor_type;location;lat;lon;timestamp;pressure;altitude;pressure_sealevel;temperature;humidity
80333;BME280;69652;51.864;-2.246;2023-11-22T00:01:19;103131.34;;;7.37;83.03
80333;BME280;69652;51.864;-2.246;2023-11-22T00:03:45;103140.06;;;7.39;82.73
80333;BME280;69652;51.864;-2.246;2023-11-22T00:06:10;103140.28;;;7.37;82.66
80333;BME280;69652;51.864;-2.246;2023-11-22T00:08:35;103140.28;;;7.37;82.91
80333;BME280;69652;51.864;-2.246;2023-11-22T00:11:01;103148.00;;;7.34;83.11
80333;BME280;69652;51.864;-2.246;2023-11-22T00:13:26;103153.41;;;7.34;82.27
80333;BME280;69652;51.864;-2.246;2023-11-22T00:15:52;103147.56;;;7.37;82.20
80333;BME280;69652;51.864;-2.246;2023-11-22T00:18:17;103161.91;;;7.37;82.79
80333;BME280;69652;51.864;-2.246;2023-11-22T00:20:43;103155.44;;;7.38;82.12
80333;BME280;69652;51.864;-2.246;2023-11-22T00:23:08;103157.09;;;7.39;82.71
80333;BME280;69652;51.864;-2.246;2023-11-22T00:25:34;103150.88;;;7.39;81.77
80333;BME280;69652;51.864;-2.246;2023-11-22T00:28:00;103130.53;;;7.36;82.15
80333;BME280;69652;51.864;-2.246;2023-11-22T00:30:26;103133.00;;;7.38;82.37
80333;BME280;69652;51.864;-2.246;2023-11-22T00:32:51;103134.44;;;7.40;82.42
80333;BME280;69652;51.864;-2.246;2023-11-22T00:35:17;103129.88;;;7.41;83.03
80333;BME280;69652;51.864;-2.246;2023-11-22T00:37:42;103120.72;;;7.42;82.67
80333;BME280;69652;51.864;-2.246;2023-11-22T00:40:08;103121.28;;;7.44;82.02
80333;BME280;69652;51.864;-2.246;2023-11-22T00:42:37;103128.97;;;7.47;82.03
80333;BME280;69652;51.864;-2.246;2023-11-22T00:45:05;103123.78;;;7.45;81.57
80333;BME280;69652;51.864;-2.246;2023-11-22T00:47:32;103120.25;;;7.45;82.96
80333;BME280;69652;51.864;-2.246;2023-11-22T00:49:58;103121.91;;;7.46;83.04
80333;BME280;69652;51.864;-2.246;2023-11-22T00:52:24;103113.19;;;7.44;82.81
80333;BME280;69652;51.864;-2.246;2023-11-22T00:54:49;103105.91;;;7.44;81.63
80333;BME280;69652;51.864;-2.246;2023-11-22T00:57:15;103111.56;;;7.43;82.46
80333;BME280;69652;51.864;-2.246;2023-11-22T00:59:40;103114.50;;;7.41;82.82
80333;BME280;69652;51.864;-2.246;2023-11-22T01:02:06;103111.56;;;7.43;83.20
80333;BME280;69652;51.864;-2.246;2023-11-22T01:04:34;103113.66;;;7.41;82.78
80333;BME280;69652;51.864;-2.246;2023-11-22T01:07:01;103119.06;;;7.41;83.00
80333;BME280;69652;51.864;-2.246;2023-11-22T01:09:26;103106.59;;;7.40;82.89
80333;BME280;69652;51.864;-2.246;2023-11-22T01:11:54;103099.16;;;7.35;82.21
80333;BME280;69652;51.864;-2.246;2023-11-22T01:14:19;103102.84;;;7.41;82.46
80333;BME280;69652;51.864;-2.246;2023-11-22T01:16:44;103106.16;;;7.43;82.91
80333;BME280;69652;51.864;-2.246;2023-11-22T01:19:10;103096.97;;;7.44;83.39
80333;BME280;69652;51.864;-2.246;2023-11-22T01:21:36;103095.94;;;7.45;82.90
80333;BME280;69652;51.864;-2.246;2023-11-22T01:24:02;103093.00;;;7.46;82.71
80333;BME280;69652;51.864;-2.246;2023-11-22T01:26:27;103101.94;;;7.47;83.33
80333;BME280;69652;51.864;-2.246;2023-11-22T01:28:53;103103.69;;;7.41;82.77
80333;BME280;69652;51.864;-2.246;2023-11-22T01:31:18;103115.31;;;7.42;83.49
80333;BME280;69652;51.864;-2.246;2023-11-22T01:33:46;103126.13;;;7.42;83.54
80333;BME280;69652;51.864;-2.246;2023-11-22T01:36:13;103123.41;;;7.42;83.50
80333;BME280;69652;51.864;-2.246;2023-11-22T01:38:40;103134.81;;;7.44;83.42
80333;BME280;69652;51.864;-2.246;2023-11-22T01:41:06;103123.19;;;7.43;83.00
80333;BME280;69652;51.864;-2.246;2023-11-22T01:43:32;103117.53;;;7.45;83.51
80333;BME280;69652;51.864;-2.246;2023-11-22T01:45:57;103112.16;;;7.45;82.51
80333;BME280;69652;51.864;-2.246;2023-11-22T01:48:23;103117.09;;;7.48;83.26
80333;BME280;69652;51.864;-2.246;2023-11-22T01:50:49;103120.50;;;7.43;83.31
80333;BME280;69652;51.864;-2.246;2023-11-22T01:53:15;103119.06;;;7.41;82.25
80333;BME280;69652;51.864;-2.246;2023-11-22T01:55:42;103122.41;;;7.36;83.24
80333;BME280;69652;51.864;-2.246;2023-11-22T01:58:08;103127.81;;;7.36;83.24
80333;BME280;69652;51.864;-2.246;2023-11-22T02:00:50;103119.13;;;7.34;83.04
80333;BME280;69652;51.864;-2.246;2023-11-22T02:03:17;103112.53;;;7.30;83.50
80333;BME280;69652;51.864;-2.246;2023-11-22T02:05:44;103102.53;;;7.31;83.55
80333;BME280;69652;51.864;-2.246;2023-11-22T02:08:11;103101.72;;;7.30;83.62
80333;BME280;69652;51.864;-2.246;2023-11-22T02:10:37;103114.97;;;7.32;83.24
80333;BME280;69652;51.864;-2.246;2023-11-22T02:13:06;103116.72;;;7.26;82.80
80333;BME280;69652;51.864;-2.246;2023-11-22T02:15:37;103117.97;;;7.23;83.21
80333;BME280;69652;51.864;-2.246;2023-11-22T02:18:03;103137.50;;;7.25;83.96
80333;BME280;69652;51.864;-2.246;2023-11-22T02:20:31;103126.91;;;7.24;84.64
80333;BME280;69652;51.864;-2.246;2023-11-22T02:22:56;103134.41;;;7.22;84.19
80333;BME280;69652;51.864;-2.246;2023-11-22T02:25:22;103114.50;;;7.16;84.38
80333;BME280;69652;51.864;-2.246;2023-11-22T02:27:48;103107.25;;;7.17;84.43
80333;BME280;69652;51.864;-2.246;2023-11-22T02:30:13;103109.25;;;7.21;83.77
80333;BME280;69652;51.864;-2.246;2023-11-22T02:32:39;103114.50;;;7.16;83.19
80333;BME280;69652;51.864;-2.246;2023-11-22T02:35:05;103109.13;;;7.16;84.04
80333;BME280;69652;51.864;-2.246;2023-11-22T02:37:33;103102.44;;;7.19;83.54
80333;BME280;69652;51.864;-2.246;2023-11-22T02:40:09;103097.63;;;7.21;84.09
80333;BME280;69652;51.864;-2.246;2023-11-22T02:42:37;103097.63;;;7.21;84.32
80333;BME280;69652;51.864;-2.246;2023-11-22T02:45:03;103093.28;;;7.20;84.38
80333;BME280;69652;51.864;-2.246;2023-11-22T02:47:31;103106.56;;;7.21;83.95
80333;BME280;69652;51.864;-2.246;2023-11-22T02:49:56;103096.22;;;7.18;83.40
80333;BME280;69652;51.864;-2.246;2023-11-22T02:52:22;103083.59;;;7.12;83.87
80333;BME280;69652;51.864;-2.246;2023-11-22T02:54:49;103079.84;;;7.13;83.69
80333;BME280;69652;51.864;-2.246;2023-11-22T02:57:15;103080.88;;;7.12;84.77
80333;BME280;69652;51.864;-2.246;2023-11-22T02:59:44;103077.59;;;7.10;84.73
80333;BME280;69652;51.864;-2.246;2023-11-22T03:02:10;103068.44;;;7.11;83.80
80333;BME280;69652;51.864;-2.246;2023-11-22T03:04:35;103073.63;;;7.13;84.66
80333;BME280;69652;51.864;-2.246;2023-11-22T03:07:01;103074.00;;;7.16;84.25
80333;BME280;69652;51.864;-2.246;2023-11-22T03:09:26;103069.03;;;7.13;84.17
80333;BME280;69652;51.864;-2.246;2023-11-22T03:11:52;103065.72;;;7.11;84.67
80333;BME280;69652;51.864;-2.246;2023-11-22T03:14:18;103078.78;;;7.14;83.96
80333;BME280;69652;51.864;-2.246;2023-11-22T03:16:44;103078.38;;;7.17;84.92
80333;BME280;69652;51.864;-2.246;2023-11-22T03:19:10;103080.22;;;7.17;85.13
80333;BME280;69652;51.864;-2.246;2023-11-22T03:21:38;103095.19;;;7.19;84.54
80333;BME280;69652;51.864;-2.246;2023-11-22T03:24:04;103083.16;;;7.15;84.00
80333;BME280;69652;51.864;-2.246;2023-11-22T03:26:30;103089.00;;;7.12;84.01
80333;BME280;69652;51.864;-2.246;2023-11-22T03:28:55;103088.56;;;7.15;84.18
80333;BME280;69652;51.864;-2.246;2023-11-22T03:31:21;103092.84;;;7.23;83.03
80333;BME280;69652;51.864;-2.246;2023-11-22T03:33:47;103093.75;;;7.17;83.76
80333;BME280;69652;51.864;-2.246;2023-11-22T03:36:12;103083.16;;;7.15;83.76
80333;BME280;69652;51.864;-2.246;2023-11-22T03:38:39;103069.66;;;7.15;83.88
80333;BME280;69652;51.864;-2.246;2023-11-22T03:41:05;103071.75;;;7.13;84.83
80333;BME280;69652;51.864;-2.246;2023-11-22T03:43:30;103085.84;;;7.15;84.45
80333;BME280;69652;51.864;-2.246;2023-11-22T03:45:56;103079.00;;;7.13;83.89
80333;BME280;69652;51.864;-2.246;2023-11-22T03:48:21;103084.81;;;7.16;83.77
80333;BME280;69652;51.864;-2.246;2023-11-22T03:50:51;103083.97;;;7.16;84.75
80333;BME280;69652;51.864;-2.246;2023-11-22T03:53:17;103082.09;;;7.16;84.67
80333;BME280;69652;51.864;-2.246;2023-11-22T03:55:44;103075.06;;;7.15;84.76
80333;BME280;69652;51.864;-2.246;2023-11-22T03:58:09;103081.06;;;7.17;84.33
80333;BME280;69652;51.864;-2.246;2023-11-22T04:00:35;103085.84;;;7.15;85.18
80333;BME280;69652;51.864;-2.246;2023-11-22T04:03:00;103087.72;;;7.15;84.62
80333;BME280;69652;51.864;-2.246;2023-11-22T04:05:27;103084.19;;;7.14;84.43
80333;BME280;69652;51.864;-2.246;2023-11-22T04:07:53;103083.97;;;7.16;84.88
80333;BME280;69652;51.864;-2.246;2023-11-22T04:10:19;103076.09;;;7.14;84.39
80333;BME280;69652;51.864;-2.246;2023-11-22T04:12:46;103066.34;;;7.13;85.34
80333;BME280;69652;51.864;-2.246;2023-11-22T04:15:13;103058.47;;;7.12;84.96
80333;BME280;69652;51.864;-2.246;2023-11-22T04:17:39;103053.75;;;7.07;84.03
80333;BME280;69652;51.864;-2.246;2023-11-22T04:20:08;103052.66;;;7.08;84.95
80333;BME280;69652;51.864;-2.246;2023-11-22T04:22:43;103056.66;;;7.06;84.27
80333;BME280;69652;51.864;-2.246;2023-11-22T04:25:10;103063.94;;;7.05;84.42
80333;BME280;69652;51.864;-2.246;2023-11-22T04:27:38;103057.94;;;7.03;84.48
80333;BME280;69652;51.864;-2.246;2023-11-22T04:30:08;103058.59;;;6.99;84.96
80333;BME280;69652;51.864;-2.246;2023-11-22T04:32:36;103056.72;;;6.99;85.05
80333;BME280;69652;51.864;-2.246;2023-11-22T04:35:02;103052.53;;;7.03;83.88
80333;BME280;69652;51.864;-2.246;2023-11-22T04:37:30;103053.34;;;7.04;84.66
80333;BME280;69652;51.864;-2.246;2023-11-22T04:39:58;103061.66;;;7.02;83.87
80333;BME280;69652;51.864;-2.246;2023-11-22T04:42:23;103055.66;;;7.00;84.52
80333;BME280;69652;51.864;-2.246;2023-11-22T04:44:49;103049.22;;;7.01;83.57
80333;BME280;69652;51.864;-2.246;2023-11-22T04:47:14;103054.63;;;7.01;84.71
80333;BME280;69652;51.864;-2.246;2023-11-22T04:49:40;103047.34;;;7.02;83.72
80333;BME280;69652;51.864;-2.246;2023-11-22T04:52:05;103043.38;;;7.04;83.55
80333;BME280;69652;51.864;-2.246;2023-11-22T04:54:31;103034.84;;;7.07;84.67
80333;BME280;69652;51.864;-2.246;2023-11-22T04:56:58;103031.06;;;7.08;84.43
80333;BME280;69652;51.864;-2.246;2023-11-22T04:59:23;103033.75;;;7.08;84.03
80333;BME280;69652;51.864;-2.246;2023-11-22T05:01:49;103030.03;;;7.09;83.77
80333;BME280;69652;51.864;-2.246;2023-11-22T05:04:14;103029.56;;;7.12;84.20
80333;BME280;69652;51.864;-2.246;2023-11-22T05:06:40;103023.75;;;7.15;83.41
80333;BME280;69652;51.864;-2.246;2023-11-22T05:09:05;103019.56;;;7.19;83.46
80333;BME280;69652;51.864;-2.246;2023-11-22T05:11:31;102997.94;;;7.19;83.46
80333;BME280;69652;51.864;-2.246;2023-11-22T05:13:57;103005.22;;;7.19;83.19
80333;BME280;69652;51.864;-2.246;2023-11-22T05:16:22;103005.78;;;7.21;83.80
80333;BME280;69652;51.864;-2.246;2023-11-22T05:18:49;103018.72;;;7.19;83.16
80333;BME280;69652;51.864;-2.246;2023-11-22T05:21:15;103007.91;;;7.19;83.34
80333;BME280;69652;51.864;-2.246;2023-11-22T05:23:40;103018.13;;;7.17;82.97
80333;BME280;69652;51.864;-2.246;2023-11-22T05:26:06;103013.53;;;7.17;83.05
80333;BME280;69652;51.864;-2.246;2023-11-22T05:28:31;103008.28;;;7.22;83.20
80333;BME280;69652;51.864;-2.246;2023-11-22T05:30:57;103020.22;;;7.15;83.32
80333;BME280;69652;51.864;-2.246;2023-11-22T05:33:23;103014.38;;;7.18;83.92
80333;BME280;69652;51.864;-2.246;2023-11-22T05:35:49;103018.13;;;7.17;83.08
80333;BME280;69652;51.864;-2.246;2023-11-22T05:38:15;103016.38;;;7.22;84.09
80333;BME280;69652;51.864;-2.246;2023-11-22T05:40:40;103011.19;;;7.21;84.07
80333;BME280;69652;51.864;-2.246;2023-11-22T05:43:08;103015.94;;;7.25;82.94
80333;BME280;69652;51.864;-2.246;2023-11-22T05:45:34;102999.13;;;7.23;84.02
80333;BME280;69652;51.864;-2.246;2023-11-22T05:48:00;102997.25;;;7.24;84.04
80333;BME280;69652;51.864;-2.246;2023-11-22T05:50:25;102988.09;;;7.25;83.69
80333;BME280;69652;51.864;-2.246;2023-11-22T05:52:51;102980.00;;;7.25;83.21
80333;BME280;69652;51.864;-2.246;2023-11-22T05:55:16;102984.56;;;7.24;83.10
80333;BME280;69652;51.864;-2.246;2023-11-22T05:57:44;102993.50;;;7.25;84.04
80333;BME280;69652;51.864;-2.246;2023-11-22T06:00:10;103004.31;;;7.25;83.78
80333;BME280;69652;51.864;-2.246;2023-11-22T06:02:36;103005.34;;;7.24;83.02
80333;BME280;69652;51.864;-2.246;2023-11-22T06:05:04;103004.09;;;7.27;83.24
80333;BME280;69652;51.864;-2.246;2023-11-22T06:07:31;103006.19;;;7.24;83.36
80333;BME280;69652;51.864;-2.246;2023-11-22T06:09:56;103004.09;;;7.27;83.06
80333;BME280;69652;51.864;-2.246;2023-11-22T06:12:22;103018.41;;;7.27;82.58
80333;BME280;69652;51.864;-2.246;2023-11-22T06:14:48;103029.59;;;7.31;82.04
80333;BME280;69652;51.864;-2.246;2023-11-22T06:17:13;103039.94;;;7.34;82.60
80333;BME280;69652;51.864;-2.246;2023-11-22T06:19:40;103035.75;;;7.38;81.71
80333;BME280;69652;51.864;-2.246;2023-11-22T06:22:06;103037.41;;;7.39;80.62
80333;BME280;69652;51.864;-2.246;2023-11-22T06:24:32;103036.34;;;7.40;80.81
80333;BME280;69652;51.864;-2.246;2023-11-22T06:26:59;103043.41;;;7.41;82.23
80333;BME280;69652;51.864;-2.246;2023-11-22T06:29:24;103047.78;;;7.42;82.12
80333;BME280;69652;51.864;-2.246;2023-11-22T06:31:50;103044.84;;;7.43;81.00
80333;BME280;69652;51.864;-2.246;2023-11-22T06:34:15;103050.59;;;7.47;80.72
80333;BME280;69652;51.864;-2.246;2023-11-22T06:36:41;103059.31;;;7.49;81.35
80333;BME280;69652;51.864;-2.246;2023-11-22T06:39:06;103061.56;;;7.52;81.76
80333;BME280;69652;51.864;-2.246;2023-11-22T06:41:34;103065.72;;;7.54;81.11
80333;BME280;69652;51.864;-2.246;2023-11-22T06:43:59;103064.63;;;7.55;81.46
80333;BME280;69652;51.864;-2.246;2023-11-22T06:46:25;103062.53;;;7.57;80.60
80333;BME280;69652;51.864;-2.246;2023-11-22T06:48:51;103069.25;;;7.55;81.51
80333;BME280;69652;51.864;-2.246;2023-11-22T06:51:16;103074.03;;;7.53;81.86
80333;BME280;69652;51.864;-2.246;2023-11-22T06:53:44;103071.69;;;7.56;82.43
80333;BME280;69652;51.864;-2.246;2023-11-22T06:56:10;103063.34;;;7.58;82.24
80333;BME280;69652;51.864;-2.246;2023-11-22T06:58:36;103053.03;;;7.55;81.99
80333;BME280;69652;51.864;-2.246;2023-11-22T07:01:01;103057.34;;;7.56;82.13
80333;BME280;69652;51.864;-2.246;2023-11-22T07:03:27;103071.47;;;7.58;81.91
80333;BME280;69652;51.864;-2.246;2023-11-22T07:05:52;103083.09;;;7.58;82.08
80333;BME280;69652;51.864;-2.246;2023-11-22T07:08:17;103079.56;;;7.58;82.19
80333;BME280;69652;51.864;-2.246;2023-11-22T07:10:43;103072.50;;;7.57;81.64
80333;BME280;69652;51.864;-2.246;2023-11-22T07:13:10;103085.19;;;7.56;81.90
80333;BME280;69652;51.864;-2.246;2023-11-22T07:15:36;103082.28;;;7.58;81.77
80333;BME280;69652;51.864;-2.246;2023-11-22T07:18:02;103082.28;;;7.58;81.88
80333;BME280;69652;51.864;-2.246;2023-11-22T07:20:27;103075.22;;;7.57;82.46
80333;BME280;69652;51.864;-2.246;2023-11-22T07:22:52;103073.13;;;7.59;81.67
80333;BME280;69652;51.864;-2.246;2023-11-22T07:25:23;103065.00;;;7.59;82.38
80333;BME280;69652;51.864;-2.246;2023-11-22T07:27:51;103055.25;;;7.58;82.31
80333;BME280;69652;51.864;-2.246;2023-11-22T07:30:17;103047.16;;;7.58;82.48
80333;BME280;69652;51.864;-2.246;2023-11-22T07:32:45;103059.59;;;7.59;82.54
80333;BME280;69652;51.864;-2.246;2023-11-22T07:35:11;103063.97;;;7.60;81.84
80333;BME280;69652;51.864;-2.246;2023-11-22T07:37:38;103055.63;;;7.61;82.51
80333;BME280;69652;51.864;-2.246;2023-11-22T07:40:06;103054.59;;;7.63;83.00
80333;BME280;69652;51.864;-2.246;2023-11-22T07:42:33;103046.69;;;7.61;82.50
80333;BME280;69652;51.864;-2.246;2023-11-22T07:44:59;103047.91;;;7.65;82.21
80333;BME280;69652;51.864;-2.246;2023-11-22T07:47:24;103048.72;;;7.66;83.33
80333;BME280;69652;51.864;-2.246;2023-11-22T07:49:51;103055.53;;;7.68;83.31
80333;BME280;69652;51.864;-2.246;2023-11-22T07:52:16;103042.03;;;7.68;83.15
80333;BME280;69652;51.864;-2.246;2023-11-22T07:54:42;103033.91;;;7.68;84.14
80333;BME280;69652;51.864;-2.246;2023-11-22T07:57:07;103028.88;;;7.72;83.05
80333;BME280;69652;51.864;-2.246;2023-11-22T07:59:33;103035.72;;;7.74;83.96
80333;BME280;69652;51.864;-2.246;2023-11-22T08:01:59;103037.81;;;7.72;82.77
80333;BME280;69652;51.864;-2.246;2023-11-22T08:04:26;103033.63;;;7.76;83.40
80333;BME280;69652;51.864;-2.246;2023-11-22T08:06:53;103024.00;;;7.80;83.97
80333;BME280;69652;51.864;-2.246;2023-11-22T08:09:22;103022.94;;;7.81;83.49
80333;BME280;69652;51.864;-2.246;2023-11-22T08:11:48;103017.53;;;7.81;82.38
80333;BME280;69652;51.864;-2.246;2023-11-22T08:14:15;103007.69;;;7.87;82.53
80333;BME280;69652;51.864;-2.246;2023-11-22T08:16:40;103019.56;;;7.86;82.79
80333;BME280;69652;51.864;-2.246;2023-11-22T08:19:08;103011.22;;;7.87;82.39
80333;BME280;69652;51.864;-2.246;2023-11-22T08:21:34;103005.94;;;7.92;83.00
80333;BME280;69652;51.864;-2.246;2023-11-22T08:24:01;103008.06;;;7.90;82.99
80333;BME280;69652;51.864;-2.246;2023-11-22T08:26:28;103008.19;;;7.95;82.40
80333;BME280;69652;51.864;-2.246;2023-11-22T08:28:53;103013.59;;;7.95;82.62
80333;BME280;69652;51.864;-2.246;2023-11-22T08:31:20;103016.44;;;8.01;82.49
80333;BME280;69652;51.864;-2.246;2023-11-22T08:33:46;103016.06;;;7.97;81.91
80333;BME280;69652;51.864;-2.246;2023-11-22T08:36:11;103005.63;;;8.01;82.06
80333;BME280;69652;51.864;-2.246;2023-11-22T08:38:37;103010.56;;;8.04;82.52
80333;BME280;69652;51.864;-2.246;2023-11-22T08:41:07;103017.63;;;8.05;82.19
80333;BME280;69652;51.864;-2.246;2023-11-22T08:43:33;103000.56;;;8.04;82.34
80333;BME280;69652;51.864;-2.246;2023-11-22T08:46:00;102987.03;;;8.04;82.66
80333;BME280;69652;51.864;-2.246;2023-11-22T08:48:26;102984.25;;;8.11;81.95
80333;BME280;69652;51.864;-2.246;2023-11-22T08:50:52;102991.31;;;8.12;81.76
80333;BME280;69652;51.864;-2.246;2023-11-22T08:53:19;102994.13;;;8.17;82.45
80333;BME280;69652;51.864;-2.246;2023-11-22T08:55:45;102989.91;;;8.21;81.77
80333;BME280;69652;51.864;-2.246;2023-11-22T08:58:10;102987.00;;;8.22;82.29
80333;BME280;69652;51.864;-2.246;2023-11-22T09:00:36;102988.16;;;8.26;81.55
80333;BME280;69652;51.864;-2.246;2023-11-22T09:03:02;102987.81;;;8.23;81.71
80333;BME280;69652;51.864;-2.246;2023-11-22T09:05:28;102983.47;;;8.22;81.66
80333;BME280;69652;51.864;-2.246;2023-11-22T09:07:54;102979.94;;;8.21;82.36
80333;BME280;69652;51.864;-2.246;2023-11-22T09:10:21;102986.53;;;8.25;81.54
80333;BME280;69652;51.864;-2.246;2023-11-22T09:12:47;102981.69;;;8.27;81.70
80333;BME280;69652;51.864;-2.246;2023-11-22T09:15:13;102988.31;;;8.31;81.66
80333;BME280;69652;51.864;-2.246;2023-11-22T09:17:42;102994.34;;;8.33;81.34
80333;BME280;69652;51.864;-2.246;2023-11-22T09:20:15;102980.56;;;8.35;81.18
80333;BME280;69652;51.864;-2.246;2023-11-22T09:22:51;102993.06;;;8.36;82.01
80333;BME280;69652;51.864;-2.246;2023-11-22T09:25:21;103019.63;;;8.39;81.24
80333;BME280;69652;51.864;-2.246;2023-11-22T09:27:49;103030.00;;;8.42;81.16
80333;BME280;69652;51.864;-2.246;2023-11-22T09:30:19;103029.91;;;8.49;82.04
80333;BME280;69652;51.864;-2.246;2023-11-22T09:35:37;103016.84;;;8.57;81.37
80333;BME280;69652;51.864;-2.246;2023-11-22T09:38:04;103023.19;;;8.63;80.88
80333;BME280;69652;51.864;-2.246;2023-11-22T09:40:34;103028.97;;;8.66;80.82
80333;BME280;69652;51.864;-2.246;2023-11-22T09:43:01;103035.56;;;8.71;81.67
80333;BME280;69652;51.864;-2.246;2023-11-22T09:45:28;103031.59;;;8.73;81.02
80333;BME280;69652;51.864;-2.246;2023-11-22T09:47:57;103008.59;;;8.76;80.92
80333;BME280;69652;51.864;-2.246;2023-11-22T09:53:36;103017.56;;;8.76;80.84
80333;BME280;69652;51.864;-2.246;2023-11-22T09:56:07;103021.69;;;8.79;81.15
80333;BME280;69652;51.864;-2.246;2023-11-22T09:58:33;103024.75;;;8.82;80.70
80333;BME280;69652;51.864;-2.246;2023-11-22T10:01:00;103030.75;;;8.84;80.79
80333;BME280;69652;51.864;-2.246;2023-11-22T10:03:28;103016.72;;;8.87;80.45
80333;BME280;69652;51.864;-2.246;2023-11-22T10:05:57;103007.78;;;8.87;81.12
80333;BME280;69652;51.864;-2.246;2023-11-22T10:08:25;102972.09;;;8.90;81.33
80333;BME280;69652;51.864;-2.246;2023-11-22T10:10:50;102966.59;;;8.96;80.89
80333;BME280;69652;51.864;-2.246;2023-11-22T10:13:17;102962.94;;;8.91;81.63
80333;BME280;69652;51.864;-2.246;2023-11-22T10:15:46;102965.25;;;8.99;80.99
80333;BME280;69652;51.864;-2.246;2023-11-22T10:18:13;102981.88;;;9.02;81.39
80333;BME280;69652;51.864;-2.246;2023-11-22T10:20:42;102992.84;;;9.08;80.96
80333;BME280;69652;51.864;-2.246;2023-11-22T10:23:12;103003.06;;;9.17;80.90
80333;BME280;69652;51.864;-2.246;2023-11-22T10:25:49;103009.41;;;9.23;81.15
80333;BME280;69652;51.864;-2.246;2023-11-22T10:28:21;102998.91;;;9.26;80.91
80333;BME280;69652;51.864;-2.246;2023-11-22T10:30:47;102988.44;;;9.30;81.30
80333;BME280;69652;51.864;-2.246;2023-11-22T10:33:15;102972.50;;;9.33;81.26
80333;BME280;69652;51.864;-2.246;2023-11-22T10:35:45;102969.66;;;9.40;81.16
80333;BME280;69652;51.864;-2.246;2023-11-22T10:38:17;102974.22;;;9.51;81.05
80333;BME280;69652;51.864;-2.246;2023-11-22T10:40:43;102990.09;;;9.59;80.67
80333;BME280;69652;51.864;-2.246;2023-11-22T10:43:14;102996.78;;;9.68;80.38
80333;BME280;69652;51.864;-2.246;2023-11-22T10:45:41;103018.19;;;9.82;80.59
80333;BME280;69652;51.864;-2.246;2023-11-22T10:48:13;103014.75;;;9.86;80.22
80333;BME280;69652;51.864;-2.246;2023-11-22T10:50:42;103011.66;;;9.94;80.11
80333;BME280;69652;51.864;-2.246;2023-11-22T10:53:11;102993.34;;;10.01;80.19
80333;BME280;69652;51.864;-2.246;2023-11-22T10:55:42;103008.81;;;10.01;79.97
80333;BME280;69652;51.864;-2.246;2023-11-22T10:58:10;103006.75;;;10.08;80.24
80333;BME280;69652;51.864;-2.246;2023-11-22T11:00:40;102987.03;;;10.12;80.33
80333;BME280;69652;51.864;-2.246;2023-11-22T11:03:18;102988.41;;;10.15;79.80
80333;BME280;69652;51.864;-2.246;2023-11-22T11:05:52;102992.31;;;10.19;79.68
80333;BME280;69652;51.864;-2.246;2023-11-22T11:08:20;102993.50;;;10.23;79.33
80333;BME280;69652;51.864;-2.246;2023-11-22T11:10:47;102983.53;;;10.29;79.53
80333;BME280;69652;51.864;-2.246;2023-11-22T11:13:14;102986.59;;;10.32;79.51
80333;BME280;69652;51.864;-2.246;2023-11-22T11:15:42;102980.97;;;10.39;79.31
80333;BME280;69652;51.864;-2.246;2023-11-22T11:18:15;102973.41;;;10.41;79.06
80333;BME280;69652;51.864;-2.246;2023-11-22T11:20:56;102973.84;;;10.33;78.80
80333;BME280;69652;51.864;-2.246;2023-11-22T11:23:23;102974.00;;;10.43;78.33
80333;BME280;69652;51.864;-2.246;2023-11-22T11:25:57;102975.47;;;10.50;77.99
80333;BME280;69652;51.864;-2.246;2023-11-22T11:28:23;102967.06;;;10.52;78.76
80333;BME280;69652;51.864;-2.246;2023-11-22T11:30:53;102960.56;;;10.70;78.23
80333;BME280;69652;51.864;-2.246;2023-11-22T11:33:26;102954.38;;;10.74;77.88
80333;BME280;69652;51.864;-2.246;2023-11-22T11:35:52;102928.63;;;10.99;77.38
80333;BME280;69652;51.864;-2.246;2023-11-22T11:38:21;102928.47;;;11.05;76.71
80333;BME280;69652;51.864;-2.246;2023-11-22T11:40:48;102940.59;;;11.19;77.25
80333;BME280;69652;51.864;-2.246;2023-11-22T11:43:14;102940.25;;;11.38;75.84
80333;BME280;69652;51.864;-2.246;2023-11-22T11:45:42;102932.84;;;11.55;75.08
80333;BME280;69652;51.864;-2.246;2023-11-22T11:48:16;102933.59;;;11.99;75.15
80333;BME280;69652;51.864;-2.246;2023-11-22T11:50:42;102926.53;;;12.35;72.53
80333;BME280;69652;51.864;-2.246;2023-11-22T11:53:11;102929.31;;;12.45;72.15
80333;BME280;69652;51.864;-2.246;2023-11-22T11:55:37;102917.84;;;12.43;73.34
80333;BME280;69652;51.864;-2.246;2023-11-22T11:58:06;102928.34;;;12.24;73.56
80333;BME280;69652;51.864;-2.246;2023-11-22T12:00:35;102920.38;;;12.13;73.73
80333;BME280;69652;51.864;-2.246;2023-11-22T12:03:04;102913.53;;;12.10;74.26
80333;BME280;69652;51.864;-2.246;2023-11-22T12:05:30;102907.53;;;12.08;74.46
80333;BME280;69652;51.864;-2.246;2023-11-22T12:07:55;102895.66;;;11.87;74.03
80333;BME280;69652;51.864;-2.246;2023-11-22T12:10:21;102882.69;;;11.73;75.36
80333;BME280;69652;51.864;-2.246;2023-11-22T12:12:47;102880.69;;;11.63;75.74
80333;BME280;69652;51.864;-2.246;2023-11-22T12:15:12;102883.84;;;11.50;76.37
80333;BME280;69652;51.864;-2.246;2023-11-22T12:17:40;102886.47;;;11.45;77.49
80333;BME280;69652;51.864;-2.246;2023-11-22T12:20:12;102877.38;;;11.29;78.37
80333;BME280;69652;51.864;-2.246;2023-11-22T12:22:39;102876.59;;;11.34;77.93
80333;BME280;69652;51.864;-2.246;2023-11-22T12:25:06;102870.84;;;11.30;78.34
80333;BME280;69652;51.864;-2.246;2023-11-22T12:27:32;102868.72;;;11.32;78.91
80333;BME280;69652;51.864;-2.246;2023-11-22T12:29:57;102881.72;;;11.30;78.98
80333;BME280;69652;51.864;-2.246;2023-11-22T12:32:26;102884.06;;;11.21;79.77
80333;BME280;69652;51.864;-2.246;2023-11-22T12:34:51;102881.09;;;11.23;79.79
80333;BME280;69652;51.864;-2.246;2023-11-22T12:37:21;102877.25;;;11.19;80.27
80333;BME280;69652;51.864;-2.246;2023-11-22T12:39:48;102864.50;;;11.19;79.77
80333;BME280;69652;51.864;-2.246;2023-11-22T12:42:14;102864.75;;;11.18;80.79
80333;BME280;69652;51.864;-2.246;2023-11-22T12:44:49;102851.75;;;11.25;80.37
80333;BME280;69652;51.864;-2.246;2023-11-22T12:47:15;102842.28;;;11.28;80.71
80333;BME280;69652;51.864;-2.246;2023-11-22T12:49:44;102853.47;;;11.31;80.08
80333;BME280;69652;51.864;-2.246;2023-11-22T12:52:15;102847.50;;;11.34;79.87